• Join FlightAware (Why Join?)
  • Login
  • US Flag 
Rudolph Flight #1: Scheduled 
08:22PM EST


 

Airport Tracker/Info


-or-


 

Live Flight TrackerFlight Track Log ✈ UCA596 ✈ 25-Feb-2014 ✈ KIAD - KBGM

Flight Track Log - Related Links

Times and Time Zones

All times are in EST time to prevent confusion due to time zone crossing. See the UCA596 flight status page for this flight to view local times or setup timezone preferences in your user account.

Time Position Orientation Groundspeed Altitude Reporting Facility
EST Latitude Longitude Course Direction KTS MPH feet Rate Location/Type
01:09PM 39.0000 -77.4667 345° North 156 180 2,800  Level Potomac TRACON
01:10PM 39.0500 -77.4833 345° North 187 215 3,900 1,080 Climbing Potomac TRACON
01:11PM 39.1000 -77.5167 333° Northwest 204 235 5,000 1,140 Climbing Potomac TRACON
01:12PM 39.1500 -77.5333 346° North 204 235 6,200 1,140 Climbing Potomac TRACON
01:13PM 39.2167 -77.5333 360° North 208 239 7,400 1,140 Climbing Potomac TRACON
01:14PM 39.2667 -77.5167 14° North 204 235 8,600 1,200 Climbing Potomac TRACON
01:15PM 39.3167 -77.4833 27° Northeast 238 274 9,800 1,080 Climbing Potomac TRACON
01:17PM 39.3894 -77.4122 37° Northeast 240 276 11,400 1,140 Climbing Washington Center
01:18PM 39.4486 -77.3544 37° Northeast 245 282 12,600 1,080 Climbing Washington Center
01:19PM 39.5006 -77.3639 352° North 205 236 13,600 960 Climbing Washington Center
01:20PM 39.5503 -77.3947 334° Northwest 191 220 14,600 960 Climbing Washington Center
01:21PM 39.5997 -77.4283 332° Northwest 191 220 15,600 660 Climbing Washington Center
01:22PM 39.6614 -77.4539 342° North 214 246 16,000 180 Climbing New York Center
01:23PM 39.7306 -77.4497 North 236 272 16,000 240 Level New York Center
01:24PM 39.8097 -77.4492 360° North 257 296 16,500 480 Climbing New York Center
01:25PM 39.8722 -77.4497 360° North 257 296 17,000 480 Climbing New York Center
01:26PM 39.9494 -77.4489 360° North 252 290 17,500 420 Climbing New York Center
01:27PM 40.0142 -77.4469 North 252 290 17,900 420 Climbing New York Center
01:28PM 40.0914 -77.4489 359° North 252 290 18,400 480 Climbing New York Center
01:29PM 40.1769 -77.4436 North 252 290 19,000 240 Climbing New York Center
01:30PM 40.2500 -77.4425 North 257 296 19,000  Level New York Center
01:31PM 40.3189 -77.4408 North 262 302 19,000  Level New York Center
01:32PM 40.4022 -77.4433 359° North 270 311 19,000  Level New York Center
01:33PM 40.4669 -77.4414 North 270 311 19,000  Level New York Center
01:34PM 40.5464 -77.3644 36° Northeast 276 318 19,000 -240 Level New York Center
01:35PM 40.6139 -77.3108 31° Northeast 297 342 18,600 -540 Descending New York Center
01:36PM 40.6989 -77.2422 31° Northeast 314 361 18,000 -600 Descending New York Center
01:37PM 40.7756 -77.1781 32° Northeast 320 368 17,500 -600 Descending New York Center
01:38PM 40.8475 -77.1192 32° Northeast 312 359 16,800 -720 Descending New York Center
01:39PM 40.9194 -77.0597 32° Northeast 306 352 16,100 -780 Descending New York Center
01:40PM 40.9867 -77.0056 31° Northeast 294 338 15,300 -600 Descending New York Center
01:41PM 41.0564 -76.9514 30° Northeast 289 333 15,000 -360 Descending New York Center
01:42PM 41.1261 -76.8917 33° Northeast 289 333 14,600 -600 Descending New York Center
01:43PM 41.1958 -76.8344 32° Northeast 289 333 13,900 -780 Descending New York Center
01:44PM 41.2653 -76.7772 32° Northeast 289 333 13,100 -780 Descending New York Center
01:45PM 41.3306 -76.7222 32° Northeast 283 326 12,400 -660 Descending New York Center
01:46PM 41.3939 -76.6669 33° Northeast 278 320 11,800 -660 Descending New York Center
01:47PM 41.4503 -76.6194 32° Northeast 271 312 11,100 -720 Descending New York Center
01:48PM 41.5153 -76.5669 31° Northeast 271 312 10,400 -780 Descending New York Center
01:49PM 41.5847 -76.5092 32° Northeast 266 306 9,600 -660 Descending New York Center
01:50PM 41.6433 -76.4586 33° Northeast 261 300 9,100 -300 Descending New York Center
01:51PM 41.7000 -76.4106 32° Northeast 256 295 9,100 -120 Level New York Center
01:52PM 41.7519 -76.3678 32° Northeast 238 274 8,900 -420 Descending New York Center
01:53PM 41.7889 -76.2903 57° Northeast 238 274 8,300 -660 Descending New York Center
01:54PM 41.8244 -76.1928 64° Northeast 258 297 7,700 -600 Descending New York Center
01:55PM 41.8533 -76.1117 64° Northeast 250 288 7,200 -540 Descending New York Center
01:56PM 41.8792 -76.0442 63° Northeast 217 250 6,700 -540 Descending New York Center
01:57PM 41.9025 -75.9847 62° Northeast 206 237 6,200 -540 Descending New York Center
01:58PM 41.9283 -75.9197 62° Northeast 206 237 5,700 -600 Descending New York Center
01:59PM 41.9628 -75.8444 58° Northeast 206 237 5,000 -720 Descending New York Center
02:00PM 42.0158 -75.8233 16° North 206 237 4,300 -540 Descending New York Center
02:01PM 42.0558 -75.8572 328° Northwest 175 201 4,000 -180 Descending New York Center
02:02PM 42.0922 -75.8878 328° Northwest 165 190 4,000 -240 Level New York Center
02:03PM 42.1244 -75.9100 333° Northwest 145 167 3,600 -420 Descending New York Center
02:05PM 42.2000 -75.9667 352° North  Level FlightAware Approximate
02:12PM 42.2084 -75.9796 352° North  Level Estimated
02:13PM 42.2084 -75.9796 352° North  Level Estimated
02:14PM 42.2084 -75.9796 352° North  Level Estimated
02:15PM 42.2084 -75.9796 352° North  Level Estimated
02:16PM 42.2084 -75.9796 352° North  Level Estimated
02:17PM 42.2084 -75.9796 352° North  Level Estimated